Naples, Florida
Current Conditions -  °F | °C
As of 4:53 PM on Monday 20 Oct 2014 (Local Time) from KAPF Reporting Station
Overcast Overcast  
Wind Chill: 85°   Ceiling: 6000
Heat Index: 88°   Visibility: 10mi
Dew Point: 67°   Wind: 7mph
Humidity: 55%   Direction: 120°ESE
Pressure: 29.93"   Gusts: NA
Location:  26.14°N, 81.79°W
Report Text: KAPF 202053Z 12006KT 10SM OVC060 29/19 A2993 RMK AO2 SLP133 T02940194 56009
Loading
Personal Weather Stations






























Interactive Weather Map
Tropical Storm Tracking
New forecast layout! Learn more

10-Day Weather Forecast

Advertisements
Track Severe Weather on mobile